createdAt,value
2017-09-23T00:00:28.244Z,10.78
2017-09-23T00:01:08.804Z,10.82
2017-09-23T00:01:49.406Z,10.79
2017-09-23T00:02:29.923Z,10.82
2017-09-23T00:03:11.047Z,10.82
2017-09-23T00:03:51.599Z,10.81
2017-09-23T00:04:32.178Z,10.88
2017-09-23T00:05:12.729Z,10.85
2017-09-23T00:05:53.268Z,10.82
2017-09-23T00:06:33.822Z,10.84
2017-09-23T00:07:14.422Z,10.84
2017-09-23T00:07:54.948Z,10.88
2017-09-23T00:08:35.534Z,10.86
2017-09-23T00:09:16.090Z,10.88
2017-09-23T00:09:56.663Z,10.97
2017-09-23T00:10:37.223Z,10.96
2017-09-23T00:11:17.783Z,10.86
2017-09-23T00:11:58.353Z,10.96
2017-09-23T00:12:38.905Z,10.99
2017-09-23T00:13:19.478Z,10.97
2017-09-23T00:14:00.008Z,10.97
2017-09-23T00:14:40.570Z,10.96
2017-09-23T00:15:21.139Z,10.97
2017-09-23T00:16:01.703Z,11.07
2017-09-23T00:16:42.279Z,11
2017-09-23T00:17:22.846Z,11.06
2017-09-23T00:18:03.429Z,11.06
2017-09-23T00:18:44.024Z,11.04
2017-09-23T00:19:24.594Z,11.03
2017-09-23T00:20:05.173Z,11.04
2017-09-23T00:20:45.739Z,11.03
2017-09-23T00:21:26.315Z,11.06
2017-09-23T00:22:06.866Z,11.06
2017-09-23T00:22:47.409Z,11.07
2017-09-23T00:23:27.988Z,11.06
2017-09-23T00:24:08.543Z,11.14
2017-09-23T00:24:49.106Z,11.06
2017-09-23T00:25:29.643Z,11.19
2017-09-23T00:26:10.197Z,11.1
2017-09-23T00:26:50.752Z,11.1
2017-09-23T00:27:31.318Z,11.06
2017-09-23T00:28:11.878Z,11.07
2017-09-23T00:28:52.439Z,11.15
2017-09-23T00:29:33.000Z,11.07
2017-09-23T00:30:13.551Z,11.17
2017-09-23T00:30:54.108Z,11.1
2017-09-23T00:31:34.669Z,11.11
2017-09-23T00:32:15.225Z,11.21
2017-09-23T00:32:55.818Z,11.17
2017-09-23T00:33:36.341Z,11.09
2017-09-23T00:34:16.883Z,11.1
2017-09-23T00:34:57.453Z,11.14
2017-09-23T00:35:38.018Z,11.04
2017-09-23T00:36:19.170Z,11.04
2017-09-23T00:37:00.325Z,11.02
2017-09-23T00:37:40.882Z,11.11
2017-09-23T00:38:21.448Z,11.06
2017-09-23T00:39:02.016Z,11.07
2017-09-23T00:39:42.572Z,11.07
2017-09-23T00:40:23.145Z,11.06
2017-09-23T00:41:03.720Z,11.09
2017-09-23T00:41:44.301Z,11.09
2017-09-23T00:42:24.875Z,11.07
2017-09-23T00:43:05.451Z,11.06
2017-09-23T00:43:46.036Z,11.06
2017-09-23T00:44:26.619Z,11.07
2017-09-23T00:45:07.188Z,11.04
2017-09-23T00:45:47.768Z,11.06
2017-09-23T00:46:28.352Z,11.02
2017-09-23T00:47:08.931Z,11.04
2017-09-23T00:47:49.515Z,11.02
2017-09-23T00:48:30.087Z,10.97
2017-09-23T00:49:10.669Z,10.96
2017-09-23T00:49:51.252Z,10.99
2017-09-23T00:50:31.830Z,10.96
2017-09-23T00:51:12.412Z,10.99
2017-09-23T00:51:52.995Z,10.99
2017-09-23T00:52:33.581Z,10.99
2017-09-23T00:53:14.156Z,11.02
2017-09-23T00:53:54.737Z,10.99
2017-09-23T00:54:35.309Z,11.03
2017-09-23T00:55:15.880Z,11.07
2017-09-23T00:55:56.465Z,10.97
2017-09-23T00:56:37.043Z,11.02
2017-09-23T00:57:17.625Z,10.97
2017-09-23T00:57:58.204Z,10.97
2017-09-23T00:58:38.772Z,10.92
2017-09-23T00:59:19.358Z,10.96
2017-09-23T00:59:59.922Z,10.97
2017-09-23T01:00:40.504Z,11.07
2017-09-23T01:01:21.086Z,10.94
2017-09-23T01:02:01.666Z,10.97
2017-09-23T01:02:42.238Z,11.02
2017-09-23T01:03:22.818Z,11
2017-09-23T01:04:03.406Z,11.02
2017-09-23T01:04:43.983Z,11.03
2017-09-23T01:05:24.921Z,11.04
2017-09-23T01:06:05.414Z,11.04
2017-09-23T01:06:45.997Z,11.03
2017-09-23T01:07:26.585Z,11
2017-09-23T01:08:07.165Z,11.04
2017-09-23T01:08:47.745Z,11.04
2017-09-23T01:09:28.317Z,11.03
2017-09-23T01:10:08.888Z,11.03
2017-09-23T01:10:49.474Z,11.07
2017-09-23T01:11:30.051Z,11.09
2017-09-23T01:12:10.638Z,11.07
2017-09-23T01:12:51.225Z,11.07
2017-09-23T01:13:31.806Z,11.07
2017-09-23T01:14:12.384Z,11
2017-09-23T01:14:52.975Z,11.07
2017-09-23T01:15:33.550Z,11.06
2017-09-23T01:16:14.127Z,11.09
2017-09-23T01:16:54.706Z,11.11
2017-09-23T01:17:35.301Z,10.97
2017-09-23T01:18:15.868Z,11.11
2017-09-23T01:18:56.433Z,11.11
2017-09-23T01:19:37.002Z,11.1
2017-09-23T01:20:17.588Z,11.09
2017-09-23T01:20:58.159Z,11.04
2017-09-23T01:21:38.744Z,11.06
2017-09-23T01:22:19.320Z,11.11
2017-09-23T01:22:59.892Z,11
2017-09-23T01:23:40.529Z,11.02
2017-09-23T01:24:21.130Z,11.06
2017-09-23T01:25:01.702Z,11.06
2017-09-23T01:25:42.278Z,11.04
2017-09-23T01:26:22.865Z,11.04
2017-09-23T01:27:03.425Z,11.03
2017-09-23T01:27:43.996Z,11.07
2017-09-23T01:28:24.572Z,10.96
2017-09-23T01:29:05.135Z,10.96
2017-09-23T01:29:45.717Z,10.99
2017-09-23T01:30:26.300Z,10.86
2017-09-23T01:31:06.865Z,10.99
2017-09-23T01:31:47.444Z,10.84
2017-09-23T01:32:28.026Z,10.85
2017-09-23T01:33:08.594Z,10.81
2017-09-23T01:33:49.173Z,10.85
2017-09-23T01:34:29.746Z,10.86
2017-09-23T01:35:10.322Z,10.91
2017-09-23T01:35:50.893Z,10.88
2017-09-23T01:36:31.463Z,10.91
2017-09-23T01:37:12.063Z,10.88
2017-09-23T01:37:52.622Z,10.84
2017-09-23T01:38:33.710Z,10.84
2017-09-23T01:39:14.294Z,10.79
2017-09-23T01:39:54.886Z,10.81
2017-09-23T01:40:35.469Z,10.79
2017-09-23T01:41:16.048Z,10.73
2017-09-23T01:41:56.614Z,10.68
2017-09-23T01:42:37.186Z,10.68
2017-09-23T01:43:17.751Z,10.66
2017-09-23T01:43:58.318Z,10.67
2017-09-23T01:44:38.885Z,10.59
2017-09-23T01:45:19.452Z,10.55
2017-09-23T01:46:00.031Z,10.59
2017-09-23T01:46:40.642Z,10.6
2017-09-23T01:47:21.186Z,10.61
2017-09-23T01:48:01.753Z,10.61
2017-09-23T01:48:42.321Z,10.53
2017-09-23T01:49:22.901Z,10.64
2017-09-23T01:50:03.498Z,10.64
2017-09-23T01:50:44.060Z,10.63
2017-09-23T01:51:24.646Z,10.61
2017-09-23T01:52:05.238Z,10.52
2017-09-23T01:52:45.807Z,10.63
2017-09-23T01:53:26.384Z,10.6
2017-09-23T01:54:06.949Z,10.51
2017-09-23T01:54:47.539Z,10.61
2017-09-23T01:55:28.111Z,10.48
2017-09-23T01:56:08.693Z,10.59
2017-09-23T01:56:49.277Z,10.56
2017-09-23T01:57:29.852Z,10.56
2017-09-23T01:58:10.422Z,10.59
2017-09-23T01:58:50.986Z,10.53
2017-09-23T01:59:31.548Z,10.53
2017-09-23T02:00:12.118Z,10.59
2017-09-23T02:00:52.691Z,10.41
2017-09-23T02:01:33.261Z,10.47
2017-09-23T02:02:13.830Z,10.48
2017-09-23T02:02:54.405Z,10.51
2017-09-23T02:03:34.985Z,10.52
2017-09-23T02:04:15.563Z,10.48
2017-09-23T02:04:56.153Z,10.56
2017-09-23T02:05:36.736Z,10.48
2017-09-23T02:06:17.308Z,10.56
2017-09-23T02:06:58.537Z,10.53
2017-09-23T02:07:39.942Z,10.48
2017-09-23T02:08:20.519Z,10.53
2017-09-23T02:09:01.104Z,10.41
2017-09-23T02:09:41.682Z,10.48
2017-09-23T02:10:22.269Z,10.47
2017-09-23T02:11:03.694Z,10.52
2017-09-23T02:11:44.290Z,10.42
2017-09-23T02:12:24.847Z,10.53
2017-09-23T02:13:05.431Z,10.41
2017-09-23T02:13:46.011Z,10.52
2017-09-23T02:14:26.595Z,10.4
2017-09-23T02:15:08.038Z,10.44
2017-09-23T02:15:48.618Z,10.48
2017-09-23T02:16:29.205Z,10.44
2017-09-23T02:17:09.780Z,10.45
2017-09-23T02:17:50.354Z,10.42
2017-09-23T02:18:30.936Z,10.42
2017-09-23T02:19:11.515Z,10.38
2017-09-23T02:19:52.671Z,10.41
2017-09-23T02:20:34.036Z,10.42
2017-09-23T02:21:14.607Z,10.44
2017-09-23T02:21:55.187Z,10.34
2017-09-23T02:22:35.769Z,10.36
2017-09-23T02:23:16.350Z,10.44
2017-09-23T02:23:56.912Z,10.4
2017-09-23T02:24:37.489Z,10.34
2017-09-23T02:25:18.069Z,10.42
2017-09-23T02:25:58.652Z,10.34
2017-09-23T02:26:39.234Z,10.41
2017-09-23T02:27:19.811Z,10.4
2017-09-23T02:28:00.375Z,10.4
2017-09-23T02:28:40.958Z,10.4
2017-09-23T02:29:21.536Z,10.36
2017-09-23T02:30:02.118Z,10.25
2017-09-23T02:30:42.703Z,10.29
2017-09-23T02:31:23.274Z,10.25
2017-09-23T02:32:03.854Z,10.25
2017-09-23T02:32:44.440Z,10.22
2017-09-23T02:33:25.022Z,10.26
2017-09-23T02:34:05.592Z,10.2
2017-09-23T02:34:46.180Z,10.18
2017-09-23T02:35:26.763Z,10.22
2017-09-23T02:36:07.337Z,10.17
2017-09-23T02:36:47.918Z,10.17
2017-09-23T02:37:28.503Z,10.22
2017-09-23T02:38:09.080Z,10.23
2017-09-23T02:38:49.661Z,10.25
2017-09-23T02:39:30.237Z,10.25
2017-09-23T02:40:10.816Z,10.23
2017-09-23T02:40:51.398Z,10.27
2017-09-23T02:41:31.977Z,10.25
2017-09-23T02:42:12.568Z,10.32
2017-09-23T02:42:53.138Z,10.25
2017-09-23T02:43:33.722Z,10.2
2017-09-23T02:44:14.291Z,10.27
2017-09-23T02:44:54.870Z,10.25
2017-09-23T02:45:35.444Z,10.23
2017-09-23T02:46:16.016Z,10.22
2017-09-23T02:46:56.602Z,10.22
2017-09-23T02:47:37.178Z,10.2
2017-09-23T02:48:17.756Z,10.22
2017-09-23T02:48:58.339Z,10.29
2017-09-23T02:49:38.920Z,10.23
2017-09-23T02:50:19.486Z,10.2
2017-09-23T02:51:00.084Z,10.27
2017-09-23T02:51:40.633Z,10.18
2017-09-23T02:52:21.215Z,10.18
2017-09-23T02:53:01.791Z,10.17
2017-09-23T02:53:42.370Z,10.25
2017-09-23T02:54:22.981Z,10.23
2017-09-23T02:55:03.551Z,10.23
2017-09-23T02:55:44.128Z,10.18
2017-09-23T02:56:24.708Z,10.11
2017-09-23T02:57:05.289Z,10.12
2017-09-23T02:57:45.893Z,10.08
2017-09-23T02:58:26.477Z,10.02
2017-09-23T02:59:07.066Z,10.01
2017-09-23T02:59:47.643Z,9.96
2017-09-23T03:00:28.237Z,10.04
2017-09-23T03:01:08.795Z,9.94
2017-09-23T03:01:49.375Z,9.91
2017-09-23T03:02:29.966Z,9.87
2017-09-23T03:03:10.555Z,9.86
2017-09-23T03:03:51.128Z,9.91
2017-09-23T03:04:31.713Z,9.9
2017-09-23T03:05:12.294Z,9.74
2017-09-23T03:05:52.873Z,9.75
2017-09-23T03:06:33.457Z,9.74
2017-09-23T03:07:14.036Z,9.76
2017-09-23T03:07:54.618Z,9.72
2017-09-23T03:08:35.189Z,9.76
2017-09-23T03:09:15.765Z,9.72
2017-09-23T03:09:56.339Z,9.68
2017-09-23T03:10:36.917Z,9.71
2017-09-23T03:11:18.337Z,9.79
2017-09-23T03:11:58.917Z,9.75
2017-09-23T03:12:39.496Z,9.71
2017-09-23T03:13:20.082Z,9.74
2017-09-23T03:14:00.651Z,9.78
2017-09-23T03:14:41.225Z,9.71
2017-09-23T03:15:21.811Z,9.69
2017-09-23T03:16:02.389Z,9.69
2017-09-23T03:16:42.968Z,9.58
2017-09-23T03:17:23.553Z,9.61
2017-09-23T03:18:04.139Z,9.68
2017-09-23T03:18:44.718Z,9.65
2017-09-23T03:19:25.301Z,9.68
2017-09-23T03:20:05.869Z,9.54
2017-09-23T03:20:46.440Z,9.65
2017-09-23T03:21:27.009Z,9.51
2017-09-23T03:22:07.580Z,9.6
2017-09-23T03:22:48.166Z,9.57
2017-09-23T03:23:28.744Z,9.56
2017-09-23T03:24:09.330Z,9.53
2017-09-23T03:24:49.910Z,9.57
2017-09-23T03:25:30.492Z,9.48
2017-09-23T03:26:11.076Z,9.46
2017-09-23T03:26:51.664Z,9.46
2017-09-23T03:27:32.238Z,9.43
2017-09-23T03:28:12.824Z,9.42
2017-09-23T03:28:53.407Z,9.42
2017-09-23T03:29:33.989Z,9.4
2017-09-23T03:30:14.562Z,9.39
2017-09-23T03:30:55.144Z,9.4
2017-09-23T03:31:35.727Z,9.39
2017-09-23T03:32:16.309Z,9.38
2017-09-23T03:32:56.890Z,9.35
2017-09-23T03:33:37.477Z,9.4
2017-09-23T03:34:18.058Z,9.38
2017-09-23T03:34:58.644Z,9.28
2017-09-23T03:35:39.218Z,9.42
2017-09-23T03:36:19.802Z,9.32
2017-09-23T03:37:00.385Z,9.33
2017-09-23T03:37:40.963Z,9.36
2017-09-23T03:38:21.543Z,9.31
2017-09-23T03:39:02.120Z,9.2
2017-09-23T03:39:42.701Z,9.2
2017-09-23T03:41:20.073Z,9.18
2017-09-23T03:42:00.650Z,9.13
2017-09-23T03:42:41.235Z,9.1
2017-09-23T03:43:21.812Z,9.08
2017-09-23T03:44:02.383Z,9.02
2017-09-23T03:44:42.964Z,9.1
2017-09-23T03:45:23.533Z,9.01
2017-09-23T03:46:04.108Z,8.95
2017-09-23T03:46:44.678Z,8.98
2017-09-23T03:47:25.264Z,9.15
2017-09-23T03:48:06.336Z,9.08
2017-09-23T03:48:46.905Z,9.1
2017-09-23T03:49:27.473Z,9.1
2017-09-23T03:50:08.045Z,9.11
2017-09-23T03:50:48.625Z,9.17
2017-09-23T03:51:29.209Z,9.1
2017-09-23T03:52:09.781Z,9.1
2017-09-23T03:52:50.359Z,8.98
2017-09-23T03:53:30.904Z,9.01
2017-09-23T03:54:11.456Z,8.99
2017-09-23T03:54:52.021Z,9.02
2017-09-23T03:55:32.597Z,8.98
2017-09-23T03:56:13.162Z,8.92
2017-09-23T03:56:53.721Z,8.95
2017-09-23T03:58:31.081Z,8.98
2017-09-23T03:59:11.673Z,8.89
2017-09-23T03:59:52.273Z,8.94
2017-09-23T04:00:32.836Z,8.86
2017-09-23T04:01:13.424Z,8.92
2017-09-23T04:01:53.976Z,8.94
2017-09-23T04:02:34.551Z,8.98
2017-09-23T04:03:15.126Z,8.94
2017-09-23T04:03:55.701Z,8.95
2017-09-23T04:05:33.085Z,8.98
2017-09-23T04:06:13.660Z,8.96
2017-09-23T04:06:54.216Z,8.91
2017-09-23T04:07:34.799Z,8.8
2017-09-23T04:08:15.382Z,8.87
2017-09-23T04:08:55.973Z,8.79
2017-09-23T04:09:36.537Z,8.81
2017-09-23T04:10:17.123Z,8.77
2017-09-23T04:10:57.734Z,8.76
2017-09-23T04:11:38.282Z,8.84
2017-09-23T04:12:18.854Z,8.77
2017-09-23T04:12:59.423Z,8.77
2017-09-23T04:13:40.012Z,8.8
2017-09-23T04:14:20.587Z,8.71
2017-09-23T04:15:01.170Z,8.79
2017-09-23T04:15:41.732Z,8.76
2017-09-23T04:17:19.095Z,8.73
2017-09-23T04:17:59.691Z,8.7
2017-09-23T04:18:40.259Z,8.62
2017-09-23T04:19:20.837Z,8.62
2017-09-23T04:20:01.416Z,8.59
2017-09-23T04:20:42.000Z,8.63
2017-09-23T04:21:22.579Z,8.55
2017-09-23T04:22:03.157Z,8.55
2017-09-23T04:22:43.745Z,8.56
2017-09-23T04:23:24.324Z,8.59
2017-09-23T04:24:04.895Z,8.53
2017-09-23T04:24:45.459Z,8.43
2017-09-23T04:25:26.035Z,8.44
2017-09-23T04:26:06.616Z,8.41
2017-09-23T04:26:47.184Z,8.47
2017-09-23T04:27:27.762Z,8.53
2017-09-23T04:28:08.330Z,8.48
2017-09-23T04:28:48.912Z,8.48
2017-09-23T04:29:29.490Z,8.48
2017-09-23T04:30:10.072Z,8.47
2017-09-23T04:30:50.656Z,8.44
2017-09-23T04:31:31.232Z,8.47
2017-09-23T04:32:11.813Z,8.44
2017-09-23T04:32:52.376Z,8.38
2017-09-23T04:33:32.948Z,8.41
2017-09-23T04:34:13.528Z,8.44
2017-09-23T04:34:54.099Z,8.4
2017-09-23T04:35:34.690Z,8.43
2017-09-23T04:36:15.309Z,8.38
2017-09-23T04:36:55.851Z,8.44
2017-09-23T04:37:36.422Z,8.41
2017-09-23T04:38:16.989Z,8.38
2017-09-23T04:38:57.551Z,8.37
2017-09-23T04:39:38.132Z,8.44
2017-09-23T04:40:18.703Z,8.34
2017-09-23T04:40:59.268Z,8.36
2017-09-23T04:41:39.846Z,8.33
2017-09-23T04:42:20.422Z,8.36
2017-09-23T04:43:01.002Z,8.37
2017-09-23T04:43:41.570Z,8.41
2017-09-23T04:44:22.151Z,8.34
2017-09-23T04:45:02.723Z,8.38
2017-09-23T04:45:43.298Z,8.37
2017-09-23T04:46:23.869Z,8.34
2017-09-23T04:47:04.447Z,8.37
2017-09-23T04:47:45.024Z,8.36
2017-09-23T04:48:25.600Z,8.38
2017-09-23T04:49:06.183Z,8.34
2017-09-23T04:49:46.759Z,8.37
2017-09-23T04:50:27.323Z,8.36
2017-09-23T04:51:07.890Z,8.34
2017-09-23T04:51:48.464Z,8.3
2017-09-23T04:52:29.041Z,8.33
2017-09-23T04:53:09.624Z,8.36
2017-09-23T04:53:50.209Z,8.23
2017-09-23T04:54:30.787Z,8.23
2017-09-23T04:55:11.359Z,8.25
2017-09-23T04:55:51.940Z,8.26
2017-09-23T04:56:32.518Z,8.29
2017-09-23T04:57:13.089Z,8.28
2017-09-23T04:57:53.636Z,8.26
2017-09-23T04:58:34.193Z,8.26
2017-09-23T04:59:14.751Z,8.23
2017-09-23T04:59:55.320Z,8.29
2017-09-23T05:00:35.903Z,8.23
2017-09-23T05:01:16.479Z,8.3
2017-09-23T05:01:57.114Z,8.23
2017-09-23T05:02:37.712Z,8.28
2017-09-23T05:03:18.288Z,8.26
2017-09-23T05:03:58.847Z,8.36
2017-09-23T05:04:39.422Z,8.33
2017-09-23T05:05:20.054Z,8.29
2017-09-23T05:06:00.660Z,8.34
2017-09-23T05:06:41.230Z,8.36
2017-09-23T05:07:21.828Z,8.28
2017-09-23T05:08:02.988Z,8.38
2017-09-23T05:08:43.584Z,8.34
2017-09-23T05:09:24.214Z,8.33
2017-09-23T05:10:04.945Z,8.33
2017-09-23T05:10:45.543Z,8.36
2017-09-23T05:11:26.130Z,8.33
2017-09-23T05:12:06.743Z,8.28
2017-09-23T05:12:47.315Z,8.28
2017-09-23T05:13:28.031Z,8.33
2017-09-23T05:14:08.652Z,8.34
2017-09-23T05:14:49.261Z,8.3
2017-09-23T05:15:29.855Z,8.33
2017-09-23T05:16:10.432Z,8.3
2017-09-23T05:16:51.058Z,8.34
2017-09-23T05:17:31.663Z,8.37
2017-09-23T05:18:12.246Z,8.37
2017-09-23T05:18:52.930Z,8.37
2017-09-23T05:19:33.525Z,8.44
2017-09-23T05:20:14.145Z,8.37
2017-09-23T05:20:54.770Z,8.43
2017-09-23T05:21:35.388Z,8.38
2017-09-23T05:22:15.978Z,8.43
2017-09-23T05:22:56.645Z,8.43
2017-09-23T05:23:37.242Z,8.41
2017-09-23T05:24:17.840Z,8.43
2017-09-23T05:24:58.436Z,8.41
2017-09-23T05:25:39.081Z,8.43
2017-09-23T05:26:19.677Z,8.41
2017-09-23T05:27:00.273Z,8.5
2017-09-23T05:27:40.923Z,8.47
2017-09-23T05:28:21.578Z,8.45
2017-09-23T05:29:02.230Z,8.48
2017-09-23T05:29:42.921Z,8.44
2017-09-23T05:30:23.497Z,8.56
2017-09-23T05:31:04.122Z,8.53
2017-09-23T05:31:44.730Z,8.53
2017-09-23T05:32:25.328Z,8.59
2017-09-23T05:33:06.003Z,8.48
2017-09-23T05:33:46.652Z,8.62
2017-09-23T05:34:27.224Z,8.65
2017-09-23T05:35:07.842Z,8.61
2017-09-23T05:35:48.426Z,8.59
2017-09-23T05:36:29.150Z,8.59
2017-09-23T05:37:09.881Z,8.62
2017-09-23T05:37:50.454Z,8.61
2017-09-23T05:38:31.041Z,8.8
2017-09-23T05:39:11.612Z,8.8
2017-09-23T05:39:52.181Z,8.84
2017-09-23T05:40:32.757Z,8.94
2017-09-23T05:41:13.334Z,9.04
2017-09-23T05:41:53.931Z,8.98
2017-09-23T05:42:34.511Z,9.1
2017-09-23T05:43:15.071Z,9.17
2017-09-23T05:43:55.653Z,9.17
2017-09-23T05:44:36.238Z,9.17
2017-09-23T05:45:16.809Z,9.11
2017-09-23T05:45:57.382Z,9.11
2017-09-23T05:46:37.957Z,9.15
2017-09-23T05:47:18.565Z,9.21
2017-09-23T05:47:59.136Z,9.39
2017-09-23T05:48:39.756Z,9.46
2017-09-23T05:49:20.374Z,9.53
2017-09-23T05:50:00.946Z,9.54
2017-09-23T05:50:41.523Z,9.51
2017-09-23T05:51:22.134Z,9.57
2017-09-23T05:52:02.748Z,9.61
2017-09-23T05:52:43.334Z,9.78
2017-09-23T05:53:23.908Z,9.83
2017-09-23T05:54:04.478Z,9.9
2017-09-23T05:54:45.067Z,9.93
2017-09-23T05:55:25.655Z,9.97
2017-09-23T05:56:06.234Z,10.12
2017-09-23T05:56:46.805Z,10.17
2017-09-23T05:57:27.386Z,10.25
2017-09-23T05:58:07.964Z,10.23
2017-09-23T05:58:48.550Z,10.32
2017-09-23T05:59:29.131Z,10.4
2017-09-23T06:00:09.708Z,10.4
2017-09-23T06:00:50.293Z,10.42
2017-09-23T06:01:30.869Z,10.56
2017-09-23T06:02:11.452Z,10.56
2017-09-23T06:02:52.032Z,10.51
2017-09-23T06:03:32.613Z,10.53
2017-09-23T06:04:13.188Z,10.56
2017-09-23T06:04:53.776Z,10.67
2017-09-23T06:05:34.346Z,10.61
2017-09-23T06:06:14.927Z,10.56
2017-09-23T06:06:55.510Z,10.64
2017-09-23T06:07:36.079Z,10.66
2017-09-23T06:08:16.665Z,10.56
2017-09-23T06:08:57.241Z,10.51
2017-09-23T06:09:37.820Z,10.47
2017-09-23T06:10:18.476Z,10.44
2017-09-23T06:10:59.154Z,10.44
2017-09-23T06:11:39.767Z,10.38
2017-09-23T06:12:20.509Z,10.42
2017-09-23T06:13:01.192Z,10.3
2017-09-23T06:13:41.892Z,10.38
2017-09-23T06:14:22.474Z,10.38
2017-09-23T06:15:03.084Z,10.4
2017-09-23T06:15:43.841Z,10.41
2017-09-23T06:16:24.726Z,10.41
2017-09-23T06:17:05.298Z,10.45
2017-09-23T06:17:45.875Z,10.38
2017-09-23T06:18:26.537Z,10.51
2017-09-23T06:19:07.281Z,10.56
2017-09-23T06:19:47.860Z,10.55
2017-09-23T06:20:28.439Z,10.59
2017-09-23T06:21:09.025Z,10.74
2017-09-23T06:21:50.007Z,10.79
2017-09-23T06:22:30.643Z,10.84
2017-09-23T06:23:11.420Z,10.84
2017-09-23T06:23:52.416Z,10.97
2017-09-23T06:24:33.164Z,10.99
2017-09-23T06:25:13.742Z,11.09
2017-09-23T06:25:54.323Z,11.18
2017-09-23T06:26:34.901Z,11.29
2017-09-23T06:27:15.483Z,11.42
2017-09-23T06:27:56.151Z,11.42
2017-09-23T06:28:36.719Z,11.54
2017-09-23T06:29:17.362Z,11.7
2017-09-23T06:29:58.091Z,11.86
2017-09-23T06:30:38.720Z,11.86
2017-09-23T06:31:19.478Z,12.01
2017-09-23T06:32:00.067Z,12.09
2017-09-23T06:32:40.655Z,12.24
2017-09-23T06:33:21.233Z,12.35
2017-09-23T06:34:01.850Z,12.72
2017-09-23T06:34:42.566Z,12.82
2017-09-23T06:35:23.166Z,12.95
2017-09-23T06:36:03.868Z,13.08
2017-09-23T06:36:44.569Z,13.25
2017-09-23T06:37:25.226Z,13.54
2017-09-23T06:38:05.965Z,13.82
2017-09-23T06:38:46.549Z,14.03
2017-09-23T06:39:27.143Z,14.58
2017-09-23T06:40:07.715Z,14.73
2017-09-23T06:40:48.355Z,14.83
2017-09-23T06:41:29.044Z,14.69
2017-09-23T06:42:09.910Z,14.54
2017-09-23T06:42:50.656Z,14.42
2017-09-23T06:43:31.235Z,14.35
2017-09-23T06:44:11.812Z,14.32
2017-09-23T06:44:52.467Z,14.37
2017-09-23T06:45:33.160Z,14.32
2017-09-23T06:46:13.718Z,14.25
2017-09-23T06:46:54.386Z,14.07
2017-09-23T06:47:35.057Z,14.1
2017-09-23T06:48:15.726Z,14.06
2017-09-23T06:48:56.396Z,14.02
2017-09-23T06:49:37.042Z,13.91
2017-09-23T06:50:17.636Z,13.95
2017-09-23T06:50:58.348Z,13.84
2017-09-23T06:51:38.954Z,13.78
2017-09-23T06:52:19.565Z,13.64
2017-09-23T06:53:00.434Z,13.64
2017-09-23T06:53:41.211Z,13.66
2017-09-23T06:54:21.912Z,13.51
2017-09-23T06:55:02.664Z,13.57
2017-09-23T06:55:43.363Z,13.46
2017-09-23T06:56:24.039Z,13.41
2017-09-23T06:57:04.712Z,13.45
2017-09-23T06:57:45.296Z,13.51
2017-09-23T06:58:25.884Z,13.52
2017-09-23T06:59:06.501Z,13.54
2017-09-23T06:59:47.264Z,13.51
2017-09-23T07:00:27.845Z,13.49
2017-09-23T07:01:08.423Z,13.49
2017-09-23T07:01:49.004Z,13.49
2017-09-23T07:02:29.568Z,13.49
2017-09-23T07:03:10.148Z,13.49
2017-09-23T07:03:50.728Z,13.52
2017-09-23T07:04:31.370Z,13.54
2017-09-23T07:05:12.988Z,13.29
2017-09-23T07:05:53.939Z,13.23
2017-09-23T07:06:34.804Z,13.1
2017-09-23T07:07:15.677Z,12.97
2017-09-23T07:07:56.615Z,12.93
2017-09-23T07:08:38.358Z,12.97
2017-09-23T07:09:19.266Z,13.2
2017-09-23T07:10:00.572Z,13.33
2017-09-23T07:10:41.201Z,13.33
2017-09-23T07:11:21.804Z,13.48
2017-09-23T07:12:02.527Z,13.49
2017-09-23T07:12:43.255Z,13.63
2017-09-23T07:13:23.825Z,13.62
2017-09-23T07:14:04.428Z,13.7
2017-09-23T07:14:45.001Z,13.57
2017-09-23T07:15:25.593Z,13.52
2017-09-23T07:16:06.173Z,13.66
2017-09-23T07:16:46.755Z,13.73
2017-09-23T07:17:27.338Z,13.79
2017-09-23T07:18:07.924Z,13.92
2017-09-23T07:18:48.509Z,14.02
2017-09-23T07:19:29.096Z,13.89
2017-09-23T07:20:09.676Z,13.99
2017-09-23T07:20:50.255Z,14.04
2017-09-23T07:21:30.835Z,14.04
2017-09-23T07:22:11.421Z,14.06
2017-09-23T07:22:52.051Z,14.17
2017-09-23T07:23:32.630Z,14
2017-09-23T07:24:13.202Z,14.03
2017-09-23T07:24:53.792Z,13.99
2017-09-23T07:25:34.362Z,14.14
2017-09-23T07:26:14.942Z,14.15
2017-09-23T07:26:55.531Z,14.24
2017-09-23T07:27:36.103Z,14.35
2017-09-23T07:28:16.683Z,14.35
2017-09-23T07:28:57.259Z,14.51
2017-09-23T07:29:37.836Z,14.7
2017-09-23T07:30:18.418Z,14.73
2017-09-23T07:30:59.006Z,14.77
2017-09-23T07:31:39.580Z,14.89
2017-09-23T07:32:20.164Z,14.98
2017-09-23T07:33:00.741Z,15.02
2017-09-23T07:33:41.317Z,15.01
2017-09-23T07:34:21.909Z,15.02
2017-09-23T07:35:02.481Z,15.17
2017-09-23T07:35:43.074Z,15.21
2017-09-23T07:36:23.640Z,15.34
2017-09-23T07:37:04.216Z,15.47
2017-09-23T07:37:44.793Z,15.44
2017-09-23T07:38:25.369Z,15.62
2017-09-23T07:39:05.956Z,15.67
2017-09-23T07:39:46.533Z,15.67
2017-09-23T07:40:27.112Z,15.68
2017-09-23T07:41:07.691Z,15.69
2017-09-23T07:41:48.257Z,15.8
2017-09-23T07:42:28.841Z,15.76
2017-09-23T07:43:09.417Z,15.92
2017-09-23T07:43:50.005Z,16
2017-09-23T07:44:30.591Z,15.96
2017-09-23T07:45:11.166Z,16.05
2017-09-23T07:45:51.742Z,16.12
2017-09-23T07:46:32.327Z,16.05
2017-09-23T07:47:12.912Z,16.07
2017-09-23T07:47:53.508Z,16.15
2017-09-23T07:48:48.711Z,16.09
2017-09-23T07:49:29.291Z,16.08
2017-09-23T07:50:09.876Z,16.09
2017-09-23T07:50:50.458Z,16.07
2017-09-23T07:51:31.042Z,16.04
2017-09-23T07:52:11.605Z,16.15
2017-09-23T07:52:52.182Z,16.2
2017-09-23T07:53:32.764Z,16.15
2017-09-23T07:54:13.349Z,16.25
2017-09-23T07:54:53.932Z,16.3
2017-09-23T07:55:34.514Z,16.23
2017-09-23T07:56:15.083Z,16.43
2017-09-23T07:56:55.665Z,16.42
2017-09-23T07:57:36.239Z,16.45
2017-09-23T07:58:16.810Z,16.45
2017-09-23T07:58:57.387Z,16.45
2017-09-23T07:59:37.969Z,16.43
2017-09-23T08:00:18.551Z,16.46
2017-09-23T08:00:59.137Z,16.64
2017-09-23T08:01:39.717Z,16.66
2017-09-23T08:02:20.303Z,16.78
2017-09-23T08:03:00.887Z,16.81
2017-09-23T08:03:41.468Z,16.81
2017-09-23T08:04:22.052Z,16.88
2017-09-23T08:05:02.638Z,16.89
2017-09-23T08:05:43.223Z,16.91
2017-09-23T08:06:23.807Z,16.71
2017-09-23T08:07:04.388Z,16.79
2017-09-23T08:07:44.967Z,16.91
2017-09-23T08:08:25.550Z,16.96
2017-09-23T08:09:06.138Z,17.03
2017-09-23T08:09:46.715Z,16.96
2017-09-23T08:10:27.304Z,16.93
2017-09-23T08:11:07.880Z,17.08
2017-09-23T08:11:48.492Z,17.23
2017-09-23T08:12:29.077Z,17.31
2017-09-23T08:13:09.648Z,17.37
2017-09-23T08:13:50.220Z,17.56
2017-09-23T08:14:30.800Z,17.77
2017-09-23T08:15:11.388Z,17.78
2017-09-23T08:15:51.965Z,17.95
2017-09-23T08:16:32.532Z,18.03
2017-09-23T08:17:13.110Z,18.05
2017-09-23T08:17:53.700Z,18.05
2017-09-23T08:18:34.289Z,18.07
2017-09-23T08:19:14.874Z,18.23
2017-09-23T08:19:55.454Z,18.47
2017-09-23T08:20:36.036Z,18.47
2017-09-23T08:21:16.619Z,18.44
2017-09-23T08:21:57.203Z,19
2017-09-23T08:22:37.767Z,19.04
2017-09-23T08:23:18.352Z,19.94
2017-09-23T08:23:58.945Z,20.01
2017-09-23T08:24:39.524Z,20.02
2017-09-23T08:25:20.102Z,19.83
2017-09-23T08:26:00.687Z,19.62
2017-09-23T08:26:41.277Z,19.61
2017-09-23T08:27:21.858Z,19.55
2017-09-23T08:28:02.443Z,19.39
2017-09-23T08:28:43.025Z,19.21
2017-09-23T08:29:23.611Z,19.84
2017-09-23T08:30:04.200Z,21.43
2017-09-23T08:30:44.776Z,21.91
2017-09-23T08:31:25.346Z,22.9
2017-09-23T08:32:05.932Z,23.04
2017-09-23T08:32:46.526Z,23.53
2017-09-23T08:33:27.108Z,24.58
2017-09-23T08:34:07.696Z,23.84
2017-09-23T08:34:48.286Z,23.47
2017-09-23T08:35:28.868Z,23.15
2017-09-23T08:36:09.453Z,22.91
2017-09-23T08:36:50.035Z,22.37
2017-09-23T08:37:30.627Z,23.17
2017-09-23T08:38:11.208Z,23.27
2017-09-23T08:38:51.789Z,23.5
2017-09-23T08:39:32.385Z,24.39
2017-09-23T08:40:12.976Z,24.95
2017-09-23T08:40:53.557Z,25.5
2017-09-23T08:41:34.143Z,25.94
2017-09-23T08:42:14.736Z,26.3
2017-09-23T08:42:55.324Z,26.12
2017-09-23T08:43:35.914Z,26.32
2017-09-23T08:44:16.507Z,27.19
2017-09-23T08:44:57.082Z,27.62
2017-09-23T08:45:37.679Z,27.74
2017-09-23T08:46:18.275Z,27.85
2017-09-23T08:46:58.864Z,27.59
2017-09-23T08:47:39.457Z,27.96
2017-09-23T08:48:20.044Z,27.41
2017-09-23T08:49:00.633Z,27.49
2017-09-23T08:49:41.226Z,28.27
2017-09-23T08:50:21.815Z,28.61
2017-09-23T08:51:02.400Z,28.95
2017-09-23T08:51:42.996Z,29.36
2017-09-23T08:52:23.587Z,29.05
2017-09-23T08:53:04.167Z,28.44
2017-09-23T08:53:44.761Z,28.33
2017-09-23T08:54:25.357Z,28.74